sensor_id;sensor_type;location;lat;lon;timestamp;P1;durP1;ratioP1;P2;durP2;ratioP2
81697;SDS011;71109;52.514;5.708;2024-02-14T00:00:31;11.07;;;6.20;;
81697;SDS011;71109;52.514;5.708;2024-02-14T00:02:57;9.40;;;5.93;;
81697;SDS011;71109;52.514;5.708;2024-02-14T00:05:22;12.40;;;6.40;;
81697;SDS011;71109;52.514;5.708;2024-02-14T00:07:48;9.32;;;6.25;;
81697;SDS011;71109;52.514;5.708;2024-02-14T00:10:13;12.07;;;5.90;;
81697;SDS011;71109;52.514;5.708;2024-02-14T00:12:38;12.83;;;6.53;;
81697;SDS011;71109;52.514;5.708;2024-02-14T00:15:04;9.57;;;5.68;;
81697;SDS011;71109;52.514;5.708;2024-02-14T00:17:32;11.20;;;6.50;;
81697;SDS011;71109;52.514;5.708;2024-02-14T00:19:58;9.70;;;5.70;;
81697;SDS011;71109;52.514;5.708;2024-02-14T00:22:24;9.35;;;5.75;;
81697;SDS011;71109;52.514;5.708;2024-02-14T00:24:49;11.38;;;5.80;;
81697;SDS011;71109;52.514;5.708;2024-02-14T00:27:15;12.30;;;7.63;;
81697;SDS011;71109;52.514;5.708;2024-02-14T00:29:40;14.23;;;5.63;;
81697;SDS011;71109;52.514;5.708;2024-02-14T00:32:06;10.10;;;5.93;;
81697;SDS011;71109;52.514;5.708;2024-02-14T00:34:31;10.65;;;6.35;;
81697;SDS011;71109;52.514;5.708;2024-02-14T00:36:57;9.97;;;6.17;;
81697;SDS011;71109;52.514;5.708;2024-02-14T00:39:22;10.67;;;6.83;;
81697;SDS011;71109;52.514;5.708;2024-02-14T00:41:47;11.57;;;6.72;;
81697;SDS011;71109;52.514;5.708;2024-02-14T00:44:13;9.23;;;6.47;;
81697;SDS011;71109;52.514;5.708;2024-02-14T00:46:42;13.00;;;7.25;;
81697;SDS011;71109;52.514;5.708;2024-02-14T00:49:08;10.30;;;5.95;;
81697;SDS011;71109;52.514;5.708;2024-02-14T00:51:33;10.13;;;7.13;;
81697;SDS011;71109;52.514;5.708;2024-02-14T00:53:59;11.05;;;6.97;;
81697;SDS011;71109;52.514;5.708;2024-02-14T00:56:25;10.43;;;6.75;;
81697;SDS011;71109;52.514;5.708;2024-02-14T00:58:50;12.07;;;6.20;;
81697;SDS011;71109;52.514;5.708;2024-02-14T01:01:16;12.82;;;7.15;;
81697;SDS011;71109;52.514;5.708;2024-02-14T01:03:41;12.17;;;6.53;;
81697;SDS011;71109;52.514;5.708;2024-02-14T01:06:06;10.83;;;6.20;;
81697;SDS011;71109;52.514;5.708;2024-02-14T01:08:32;14.97;;;6.47;;
81697;SDS011;71109;52.514;5.708;2024-02-14T01:10:58;14.65;;;7.72;;
81697;SDS011;71109;52.514;5.708;2024-02-14T01:13:24;12.75;;;7.10;;
81697;SDS011;71109;52.514;5.708;2024-02-14T01:15:49;11.87;;;6.60;;
81697;SDS011;71109;52.514;5.708;2024-02-14T01:18:15;10.32;;;6.60;;
81697;SDS011;71109;52.514;5.708;2024-02-14T01:20:40;10.55;;;6.85;;
81697;SDS011;71109;52.514;5.708;2024-02-14T01:23:05;13.23;;;6.60;;
81697;SDS011;71109;52.514;5.708;2024-02-14T01:25:31;12.25;;;7.15;;
81697;SDS011;71109;52.514;5.708;2024-02-14T01:27:58;12.75;;;7.15;;
81697;SDS011;71109;52.514;5.708;2024-02-14T01:30:24;10.88;;;7.07;;
81697;SDS011;71109;52.514;5.708;2024-02-14T01:32:50;13.02;;;7.82;;
81697;SDS011;71109;52.514;5.708;2024-02-14T01:35:15;15.17;;;8.70;;
81697;SDS011;71109;52.514;5.708;2024-02-14T01:37:40;10.57;;;6.87;;
81697;SDS011;71109;52.514;5.708;2024-02-14T01:40:06;15.27;;;8.17;;
81697;SDS011;71109;52.514;5.708;2024-02-14T01:42:34;15.30;;;8.75;;
81697;SDS011;71109;52.514;5.708;2024-02-14T01:45:00;16.17;;;8.93;;
81697;SDS011;71109;52.514;5.708;2024-02-14T01:47:25;12.75;;;7.82;;
81697;SDS011;71109;52.514;5.708;2024-02-14T01:49:51;15.35;;;8.63;;
81697;SDS011;71109;52.514;5.708;2024-02-14T01:52:16;16.08;;;8.73;;
81697;SDS011;71109;52.514;5.708;2024-02-14T01:54:41;15.85;;;9.52;;
81697;SDS011;71109;52.514;5.708;2024-02-14T01:57:07;16.60;;;9.68;;
81697;SDS011;71109;52.514;5.708;2024-02-14T01:59:33;16.63;;;10.25;;
81697;SDS011;71109;52.514;5.708;2024-02-14T02:02:00;20.38;;;9.80;;
81697;SDS011;71109;52.514;5.708;2024-02-14T02:04:25;17.33;;;9.70;;
81697;SDS011;71109;52.514;5.708;2024-02-14T02:06:50;18.77;;;10.30;;
81697;SDS011;71109;52.514;5.708;2024-02-14T02:09:16;20.38;;;11.70;;
81697;SDS011;71109;52.514;5.708;2024-02-14T02:11:42;22.52;;;12.05;;
81697;SDS011;71109;52.514;5.708;2024-02-14T02:14:13;20.95;;;11.13;;
81697;SDS011;71109;52.514;5.708;2024-02-14T02:16:39;26.92;;;13.40;;
81697;SDS011;71109;52.514;5.708;2024-02-14T02:19:04;25.20;;;13.15;;
81697;SDS011;71109;52.514;5.708;2024-02-14T02:21:33;20.88;;;11.25;;
81697;SDS011;71109;52.514;5.708;2024-02-14T02:23:59;22.27;;;12.52;;
81697;SDS011;71109;52.514;5.708;2024-02-14T02:26:25;25.67;;;13.10;;
81697;SDS011;71109;52.514;5.708;2024-02-14T02:28:51;24.08;;;13.18;;
81697;SDS011;71109;52.514;5.708;2024-02-14T02:31:16;27.20;;;13.73;;
81697;SDS011;71109;52.514;5.708;2024-02-14T02:33:42;26.27;;;13.45;;
81697;SDS011;71109;52.514;5.708;2024-02-14T02:36:08;25.75;;;13.88;;
81697;SDS011;71109;52.514;5.708;2024-02-14T02:38:34;21.63;;;12.50;;
81697;SDS011;71109;52.514;5.708;2024-02-14T02:41:01;24.40;;;13.40;;
81697;SDS011;71109;52.514;5.708;2024-02-14T02:43:28;28.33;;;13.65;;
81697;SDS011;71109;52.514;5.708;2024-02-14T02:45:53;27.65;;;12.52;;
81697;SDS011;71109;52.514;5.708;2024-02-14T02:48:19;27.45;;;13.38;;
81697;SDS011;71109;52.514;5.708;2024-02-14T02:50:48;29.95;;;13.82;;
81697;SDS011;71109;52.514;5.708;2024-02-14T02:53:14;31.88;;;13.93;;
81697;SDS011;71109;52.514;5.708;2024-02-14T02:55:40;30.92;;;15.57;;
81697;SDS011;71109;52.514;5.708;2024-02-14T02:58:06;26.08;;;13.65;;
81697;SDS011;71109;52.514;5.708;2024-02-14T03:00:31;27.50;;;15.15;;
81697;SDS011;71109;52.514;5.708;2024-02-14T03:02:57;27.17;;;12.95;;
81697;SDS011;71109;52.514;5.708;2024-02-14T03:05:23;25.88;;;12.93;;
81697;SDS011;71109;52.514;5.708;2024-02-14T03:07:48;22.20;;;10.98;;
81697;SDS011;71109;52.514;5.708;2024-02-14T03:10:15;23.88;;;11.43;;
81697;SDS011;71109;52.514;5.708;2024-02-14T03:12:44;22.00;;;11.93;;
81697;SDS011;71109;52.514;5.708;2024-02-14T03:15:12;25.90;;;12.45;;
81697;SDS011;71109;52.514;5.708;2024-02-14T03:17:38;28.90;;;13.63;;
81697;SDS011;71109;52.514;5.708;2024-02-14T03:20:04;24.35;;;12.57;;
81697;SDS011;71109;52.514;5.708;2024-02-14T03:22:35;23.75;;;12.50;;
81697;SDS011;71109;52.514;5.708;2024-02-14T03:25:01;26.73;;;13.52;;
81697;SDS011;71109;52.514;5.708;2024-02-14T03:27:26;25.50;;;12.93;;
81697;SDS011;71109;52.514;5.708;2024-02-14T03:29:51;21.13;;;10.60;;
81697;SDS011;71109;52.514;5.708;2024-02-14T03:32:17;25.35;;;12.93;;
81697;SDS011;71109;52.514;5.708;2024-02-14T03:34:42;22.05;;;12.10;;
81697;SDS011;71109;52.514;5.708;2024-02-14T03:37:08;22.43;;;10.87;;
81697;SDS011;71109;52.514;5.708;2024-02-14T03:39:33;20.65;;;10.60;;
81697;SDS011;71109;52.514;5.708;2024-02-14T03:41:59;22.27;;;10.85;;
81697;SDS011;71109;52.514;5.708;2024-02-14T03:44:27;18.42;;;10.45;;
81697;SDS011;71109;52.514;5.708;2024-02-14T03:46:53;19.75;;;11.32;;
81697;SDS011;71109;52.514;5.708;2024-02-14T03:49:18;20.98;;;11.30;;
81697;SDS011;71109;52.514;5.708;2024-02-14T03:51:44;16.15;;;8.43;;
81697;SDS011;71109;52.514;5.708;2024-02-14T03:54:10;19.83;;;10.45;;
81697;SDS011;71109;52.514;5.708;2024-02-14T03:56:36;24.63;;;10.30;;
81697;SDS011;71109;52.514;5.708;2024-02-14T03:59:02;18.58;;;9.60;;
81697;SDS011;71109;52.514;5.708;2024-02-14T04:01:30;18.63;;;10.00;;
81697;SDS011;71109;52.514;5.708;2024-02-14T04:03:56;19.35;;;9.70;;
81697;SDS011;71109;52.514;5.708;2024-02-14T04:06:21;20.17;;;9.40;;
81697;SDS011;71109;52.514;5.708;2024-02-14T04:08:47;20.63;;;10.15;;
81697;SDS011;71109;52.514;5.708;2024-02-14T04:11:12;17.38;;;10.10;;
81697;SDS011;71109;52.514;5.708;2024-02-14T04:13:39;16.10;;;8.85;;
81697;SDS011;71109;52.514;5.708;2024-02-14T04:16:05;19.50;;;10.95;;
81697;SDS011;71109;52.514;5.708;2024-02-14T04:18:30;18.70;;;10.32;;
81697;SDS011;71109;52.514;5.708;2024-02-14T04:20:55;18.83;;;9.67;;
81697;SDS011;71109;52.514;5.708;2024-02-14T04:23:21;16.80;;;9.02;;
81697;SDS011;71109;52.514;5.708;2024-02-14T04:25:47;16.67;;;9.27;;
81697;SDS011;71109;52.514;5.708;2024-02-14T04:28:13;22.80;;;10.18;;
81697;SDS011;71109;52.514;5.708;2024-02-14T04:30:38;18.85;;;10.90;;
81697;SDS011;71109;52.514;5.708;2024-02-14T04:33:04;21.50;;;11.50;;
81697;SDS011;71109;52.514;5.708;2024-02-14T04:35:30;18.38;;;9.88;;
81697;SDS011;71109;52.514;5.708;2024-02-14T04:37:56;22.00;;;11.00;;
81697;SDS011;71109;52.514;5.708;2024-02-14T04:40:21;23.77;;;12.25;;
81697;SDS011;71109;52.514;5.708;2024-02-14T04:42:47;22.83;;;11.63;;
81697;SDS011;71109;52.514;5.708;2024-02-14T04:45:12;25.98;;;11.82;;
81697;SDS011;71109;52.514;5.708;2024-02-14T04:47:38;23.35;;;11.50;;
81697;SDS011;71109;52.514;5.708;2024-02-14T04:50:04;21.13;;;11.32;;
81697;SDS011;71109;52.514;5.708;2024-02-14T04:52:30;25.55;;;13.68;;
81697;SDS011;71109;52.514;5.708;2024-02-14T04:54:55;27.97;;;12.07;;
81697;SDS011;71109;52.514;5.708;2024-02-14T04:57:21;32.50;;;14.35;;
81697;SDS011;71109;52.514;5.708;2024-02-14T04:59:47;38.92;;;15.88;;
81697;SDS011;71109;52.514;5.708;2024-02-14T05:02:12;39.10;;;14.43;;
81697;SDS011;71109;52.514;5.708;2024-02-14T05:04:37;42.50;;;16.70;;
81697;SDS011;71109;52.514;5.708;2024-02-14T05:07:04;34.83;;;15.38;;
81697;SDS011;71109;52.514;5.708;2024-02-14T05:09:29;42.33;;;15.95;;
81697;SDS011;71109;52.514;5.708;2024-02-14T05:11:55;42.37;;;15.33;;
81697;SDS011;71109;52.514;5.708;2024-02-14T05:14:20;30.90;;;15.10;;
81697;SDS011;71109;52.514;5.708;2024-02-14T05:16:45;44.17;;;16.70;;
81697;SDS011;71109;52.514;5.708;2024-02-14T05:19:11;37.90;;;14.20;;
81697;SDS011;71109;52.514;5.708;2024-02-14T05:21:36;44.72;;;17.73;;
81697;SDS011;71109;52.514;5.708;2024-02-14T05:24:03;46.05;;;16.80;;
81697;SDS011;71109;52.514;5.708;2024-02-14T05:26:29;54.35;;;18.20;;
81697;SDS011;71109;52.514;5.708;2024-02-14T05:28:54;57.90;;;17.85;;
81697;SDS011;71109;52.514;5.708;2024-02-14T05:31:19;53.00;;;17.17;;
81697;SDS011;71109;52.514;5.708;2024-02-14T05:33:45;51.00;;;16.73;;
81697;SDS011;71109;52.514;5.708;2024-02-14T05:36:10;42.30;;;16.03;;
81697;SDS011;71109;52.514;5.708;2024-02-14T05:38:35;53.95;;;18.92;;
81697;SDS011;71109;52.514;5.708;2024-02-14T05:41:01;49.67;;;17.58;;
81697;SDS011;71109;52.514;5.708;2024-02-14T05:43:26;46.15;;;15.30;;
81697;SDS011;71109;52.514;5.708;2024-02-14T05:45:52;53.97;;;15.93;;
81697;SDS011;71109;52.514;5.708;2024-02-14T05:48:17;50.40;;;15.70;;
81697;SDS011;71109;52.514;5.708;2024-02-14T05:50:42;51.33;;;16.53;;
81697;SDS011;71109;52.514;5.708;2024-02-14T05:53:08;56.00;;;17.97;;
81697;SDS011;71109;52.514;5.708;2024-02-14T05:55:33;48.38;;;15.88;;
81697;SDS011;71109;52.514;5.708;2024-02-14T05:57:58;43.70;;;16.80;;
81697;SDS011;71109;52.514;5.708;2024-02-14T06:00:24;44.67;;;13.40;;
81697;SDS011;71109;52.514;5.708;2024-02-14T06:02:49;47.08;;;16.05;;
81697;SDS011;71109;52.514;5.708;2024-02-14T06:05:15;51.38;;;14.20;;
81697;SDS011;71109;52.514;5.708;2024-02-14T06:07:41;54.47;;;18.20;;
81697;SDS011;71109;52.514;5.708;2024-02-14T06:10:07;64.97;;;15.63;;
81697;SDS011;71109;52.514;5.708;2024-02-14T06:12:33;49.38;;;15.10;;
81697;SDS011;71109;52.514;5.708;2024-02-14T06:14:59;47.22;;;16.35;;
81697;SDS011;71109;52.514;5.708;2024-02-14T06:17:25;58.40;;;16.75;;
81697;SDS011;71109;52.514;5.708;2024-02-14T06:19:51;46.75;;;17.08;;
81697;SDS011;71109;52.514;5.708;2024-02-14T06:22:17;46.90;;;18.08;;
81697;SDS011;71109;52.514;5.708;2024-02-14T06:24:42;47.67;;;17.00;;
81697;SDS011;71109;52.514;5.708;2024-02-14T06:27:08;42.37;;;17.10;;
81697;SDS011;71109;52.514;5.708;2024-02-14T06:29:33;55.25;;;19.70;;
81697;SDS011;71109;52.514;5.708;2024-02-14T06:31:58;62.77;;;20.43;;
81697;SDS011;71109;52.514;5.708;2024-02-14T06:34:24;52.33;;;20.27;;
81697;SDS011;71109;52.514;5.708;2024-02-14T06:36:51;63.40;;;23.90;;
81697;SDS011;71109;52.514;5.708;2024-02-14T06:39:16;59.25;;;21.40;;
81697;SDS011;71109;52.514;5.708;2024-02-14T06:41:41;67.18;;;22.98;;
81697;SDS011;71109;52.514;5.708;2024-02-14T06:44:08;57.78;;;18.63;;
81697;SDS011;71109;52.514;5.708;2024-02-14T06:46:34;62.80;;;20.65;;
81697;SDS011;71109;52.514;5.708;2024-02-14T06:49:02;81.43;;;23.00;;
81697;SDS011;71109;52.514;5.708;2024-02-14T06:51:27;59.45;;;21.15;;
81697;SDS011;71109;52.514;5.708;2024-02-14T06:53:53;70.05;;;21.40;;
81697;SDS011;71109;52.514;5.708;2024-02-14T06:56:18;56.53;;;19.65;;
81697;SDS011;71109;52.514;5.708;2024-02-14T06:58:44;70.65;;;20.92;;
81697;SDS011;71109;52.514;5.708;2024-02-14T07:01:09;69.85;;;23.27;;
81697;SDS011;71109;52.514;5.708;2024-02-14T07:03:38;83.97;;;28.13;;
81697;SDS011;71109;52.514;5.708;2024-02-14T07:06:05;75.40;;;22.38;;
81697;SDS011;71109;52.514;5.708;2024-02-14T07:08:31;66.43;;;22.42;;
81697;SDS011;71109;52.514;5.708;2024-02-14T07:10:56;70.45;;;22.00;;
81697;SDS011;71109;52.514;5.708;2024-02-14T07:13:22;60.08;;;21.58;;
81697;SDS011;71109;52.514;5.708;2024-02-14T07:15:48;65.40;;;20.05;;
81697;SDS011;71109;52.514;5.708;2024-02-14T07:18:13;76.13;;;24.38;;
81697;SDS011;71109;52.514;5.708;2024-02-14T07:20:38;70.20;;;22.40;;
81697;SDS011;71109;52.514;5.708;2024-02-14T07:23:04;75.13;;;24.38;;
81697;SDS011;71109;52.514;5.708;2024-02-14T07:25:30;62.85;;;22.70;;
81697;SDS011;71109;52.514;5.708;2024-02-14T07:27:55;69.55;;;22.98;;
81697;SDS011;71109;52.514;5.708;2024-02-14T07:30:21;68.60;;;23.95;;
81697;SDS011;71109;52.514;5.708;2024-02-14T07:32:46;66.50;;;22.75;;
81697;SDS011;71109;52.514;5.708;2024-02-14T07:35:12;61.97;;;23.27;;
81697;SDS011;71109;52.514;5.708;2024-02-14T07:37:38;59.45;;;20.75;;
81697;SDS011;71109;52.514;5.708;2024-02-14T07:40:04;48.50;;;18.55;;
81697;SDS011;71109;52.514;5.708;2024-02-14T07:42:30;62.95;;;20.58;;
81697;SDS011;71109;52.514;5.708;2024-02-14T07:44:56;50.35;;;18.95;;
81697;SDS011;71109;52.514;5.708;2024-02-14T07:47:22;58.25;;;19.27;;
81697;SDS011;71109;52.514;5.708;2024-02-14T07:49:48;43.83;;;18.33;;
81697;SDS011;71109;52.514;5.708;2024-02-14T07:52:13;52.92;;;19.85;;
81697;SDS011;71109;52.514;5.708;2024-02-14T07:54:39;49.08;;;18.27;;
81697;SDS011;71109;52.514;5.708;2024-02-14T07:57:04;49.00;;;17.95;;
81697;SDS011;71109;52.514;5.708;2024-02-14T07:59:30;44.15;;;20.02;;
81697;SDS011;71109;52.514;5.708;2024-02-14T08:01:55;48.90;;;20.40;;
81697;SDS011;71109;52.514;5.708;2024-02-14T08:04:22;55.25;;;21.60;;
81697;SDS011;71109;52.514;5.708;2024-02-14T08:06:48;59.25;;;20.35;;
81697;SDS011;71109;52.514;5.708;2024-02-14T08:09:16;59.70;;;22.15;;
81697;SDS011;71109;52.514;5.708;2024-02-14T08:11:42;62.40;;;22.63;;
81697;SDS011;71109;52.514;5.708;2024-02-14T08:14:07;59.72;;;22.17;;
81697;SDS011;71109;52.514;5.708;2024-02-14T08:16:33;61.45;;;23.10;;
81697;SDS011;71109;52.514;5.708;2024-02-14T08:18:58;76.65;;;23.10;;
81697;SDS011;71109;52.514;5.708;2024-02-14T08:21:27;72.80;;;23.35;;
81697;SDS011;71109;52.514;5.708;2024-02-14T08:23:53;60.50;;;21.92;;
81697;SDS011;71109;52.514;5.708;2024-02-14T08:26:19;62.58;;;24.75;;
81697;SDS011;71109;52.514;5.708;2024-02-14T08:28:45;73.47;;;24.85;;
81697;SDS011;71109;52.514;5.708;2024-02-14T08:31:12;72.93;;;24.90;;
81697;SDS011;71109;52.514;5.708;2024-02-14T08:33:37;71.57;;;22.83;;
81697;SDS011;71109;52.514;5.708;2024-02-14T08:36:03;71.55;;;24.48;;
81697;SDS011;71109;52.514;5.708;2024-02-14T08:38:32;62.33;;;22.38;;
81697;SDS011;71109;52.514;5.708;2024-02-14T08:40:59;67.88;;;23.13;;
81697;SDS011;71109;52.514;5.708;2024-02-14T08:43:25;75.00;;;23.75;;
81697;SDS011;71109;52.514;5.708;2024-02-14T08:45:51;79.55;;;24.95;;
81697;SDS011;71109;52.514;5.708;2024-02-14T08:48:16;66.93;;;21.65;;
81697;SDS011;71109;52.514;5.708;2024-02-14T08:50:42;75.68;;;23.02;;
81697;SDS011;71109;52.514;5.708;2024-02-14T08:53:07;73.18;;;24.73;;
81697;SDS011;71109;52.514;5.708;2024-02-14T08:55:33;69.50;;;22.27;;
81697;SDS011;71109;52.514;5.708;2024-02-14T08:57:59;60.70;;;20.92;;
81697;SDS011;71109;52.514;5.708;2024-02-14T09:00:25;83.68;;;24.98;;
81697;SDS011;71109;52.514;5.708;2024-02-14T09:02:51;69.20;;;24.77;;
81697;SDS011;71109;52.514;5.708;2024-02-14T09:05:18;74.00;;;24.73;;
81697;SDS011;71109;52.514;5.708;2024-02-14T09:07:43;83.35;;;23.65;;
81697;SDS011;71109;52.514;5.708;2024-02-14T09:10:09;84.85;;;26.10;;
81697;SDS011;71109;52.514;5.708;2024-02-14T09:12:37;83.85;;;26.27;;
81697;SDS011;71109;52.514;5.708;2024-02-14T09:15:03;82.82;;;26.58;;
81697;SDS011;71109;52.514;5.708;2024-02-14T09:17:29;67.40;;;23.55;;
81697;SDS011;71109;52.514;5.708;2024-02-14T09:19:55;84.00;;;24.90;;
81697;SDS011;71109;52.514;5.708;2024-02-14T09:22:20;72.55;;;25.67;;
81697;SDS011;71109;52.514;5.708;2024-02-14T09:24:50;76.40;;;26.02;;
81697;SDS011;71109;52.514;5.708;2024-02-14T09:27:15;73.95;;;23.92;;
81697;SDS011;71109;52.514;5.708;2024-02-14T09:29:41;73.55;;;23.58;;
81697;SDS011;71109;52.514;5.708;2024-02-14T09:32:07;53.03;;;20.60;;
81697;SDS011;71109;52.514;5.708;2024-02-14T09:34:33;62.33;;;22.20;;
81697;SDS011;71109;52.514;5.708;2024-02-14T09:36:59;68.72;;;22.48;;
81697;SDS011;71109;52.514;5.708;2024-02-14T09:39:25;68.03;;;23.13;;
81697;SDS011;71109;52.514;5.708;2024-02-14T09:41:54;59.90;;;21.02;;
81697;SDS011;71109;52.514;5.708;2024-02-14T09:44:20;63.40;;;22.08;;
81697;SDS011;71109;52.514;5.708;2024-02-14T09:46:49;73.05;;;21.92;;
81697;SDS011;71109;52.514;5.708;2024-02-14T09:49:14;58.88;;;21.02;;
81697;SDS011;71109;52.514;5.708;2024-02-14T09:51:42;65.63;;;22.83;;
81697;SDS011;71109;52.514;5.708;2024-02-14T09:54:09;74.03;;;23.98;;
81697;SDS011;71109;52.514;5.708;2024-02-14T09:56:35;68.25;;;23.33;;
81697;SDS011;71109;52.514;5.708;2024-02-14T09:59:01;53.15;;;21.50;;
81697;SDS011;71109;52.514;5.708;2024-02-14T10:01:27;57.40;;;21.90;;
81697;SDS011;71109;52.514;5.708;2024-02-14T10:03:54;50.58;;;19.77;;
81697;SDS011;71109;52.514;5.708;2024-02-14T10:06:20;47.33;;;18.23;;
81697;SDS011;71109;52.514;5.708;2024-02-14T10:08:46;40.72;;;17.63;;
81697;SDS011;71109;52.514;5.708;2024-02-14T10:11:12;36.95;;;15.95;;
81697;SDS011;71109;52.514;5.708;2024-02-14T10:13:39;32.00;;;14.77;;
81697;SDS011;71109;52.514;5.708;2024-02-14T10:16:05;32.45;;;14.52;;
81697;SDS011;71109;52.514;5.708;2024-02-14T10:18:32;29.05;;;12.73;;
81697;SDS011;71109;52.514;5.708;2024-02-14T10:20:58;24.37;;;10.93;;
81697;SDS011;71109;52.514;5.708;2024-02-14T10:23:23;29.90;;;13.63;;
81697;SDS011;71109;52.514;5.708;2024-02-14T10:25:55;27.58;;;12.60;;
81697;SDS011;71109;52.514;5.708;2024-02-14T10:28:21;27.65;;;12.80;;
81697;SDS011;71109;52.514;5.708;2024-02-14T10:30:47;23.20;;;11.85;;
81697;SDS011;71109;52.514;5.708;2024-02-14T10:33:14;24.05;;;11.73;;
81697;SDS011;71109;52.514;5.708;2024-02-14T10:35:40;22.33;;;11.73;;
81697;SDS011;71109;52.514;5.708;2024-02-14T10:38:07;23.25;;;11.80;;
81697;SDS011;71109;52.514;5.708;2024-02-14T10:40:34;25.38;;;11.27;;
81697;SDS011;71109;52.514;5.708;2024-02-14T10:43:01;21.73;;;12.27;;
81697;SDS011;71109;52.514;5.708;2024-02-14T10:45:27;23.15;;;11.07;;
81697;SDS011;71109;52.514;5.708;2024-02-14T10:47:56;20.63;;;11.40;;
81697;SDS011;71109;52.514;5.708;2024-02-14T10:50:22;18.50;;;9.65;;
81697;SDS011;71109;52.514;5.708;2024-02-14T10:52:49;23.05;;;10.27;;
81697;SDS011;71109;52.514;5.708;2024-02-14T10:55:15;15.57;;;8.88;;
81697;SDS011;71109;52.514;5.708;2024-02-14T10:57:42;16.98;;;9.07;;
81697;SDS011;71109;52.514;5.708;2024-02-14T11:00:10;15.85;;;9.00;;
81697;SDS011;71109;52.514;5.708;2024-02-14T11:02:39;18.67;;;9.68;;
81697;SDS011;71109;52.514;5.708;2024-02-14T11:05:05;19.15;;;9.70;;
81697;SDS011;71109;52.514;5.708;2024-02-14T11:07:32;22.05;;;11.00;;
81697;SDS011;71109;52.514;5.708;2024-02-14T11:10:06;24.23;;;12.13;;
81697;SDS011;71109;52.514;5.708;2024-02-14T11:12:35;27.92;;;12.00;;
81697;SDS011;71109;52.514;5.708;2024-02-14T11:15:08;35.03;;;14.35;;
81697;SDS011;71109;52.514;5.708;2024-02-14T11:17:34;31.95;;;14.60;;
81697;SDS011;71109;52.514;5.708;2024-02-14T11:20:00;34.78;;;15.50;;
81697;SDS011;71109;52.514;5.708;2024-02-14T11:22:37;30.88;;;15.05;;
81697;SDS011;71109;52.514;5.708;2024-02-14T11:25:14;30.77;;;14.27;;
81697;SDS011;71109;52.514;5.708;2024-02-14T11:27:44;44.10;;;14.82;;
81697;SDS011;71109;52.514;5.708;2024-02-14T11:30:10;29.77;;;13.68;;
81697;SDS011;71109;52.514;5.708;2024-02-14T11:32:37;33.08;;;14.95;;
81697;SDS011;71109;52.514;5.708;2024-02-14T11:35:04;27.55;;;14.35;;
81697;SDS011;71109;52.514;5.708;2024-02-14T11:37:30;24.63;;;13.18;;
81697;SDS011;71109;52.514;5.708;2024-02-14T11:39:56;30.27;;;12.80;;
81697;SDS011;71109;52.514;5.708;2024-02-14T11:42:23;27.75;;;13.40;;
81697;SDS011;71109;52.514;5.708;2024-02-14T11:44:48;24.58;;;12.40;;
81697;SDS011;71109;52.514;5.708;2024-02-14T11:47:14;35.08;;;13.45;;
81697;SDS011;71109;52.514;5.708;2024-02-14T11:49:39;28.23;;;13.13;;
81697;SDS011;71109;52.514;5.708;2024-02-14T11:52:09;26.25;;;13.07;;
81697;SDS011;71109;52.514;5.708;2024-02-14T11:54:34;22.52;;;11.77;;
81697;SDS011;71109;52.514;5.708;2024-02-14T11:57:00;24.15;;;12.10;;
81697;SDS011;71109;52.514;5.708;2024-02-14T11:59:25;25.90;;;11.45;;
81697;SDS011;71109;52.514;5.708;2024-02-14T12:01:51;21.65;;;9.13;;
81697;SDS011;71109;52.514;5.708;2024-02-14T12:04:17;19.40;;;8.88;;
81697;SDS011;71109;52.514;5.708;2024-02-14T12:06:42;20.13;;;9.43;;
81697;SDS011;71109;52.514;5.708;2024-02-14T12:09:08;18.08;;;9.60;;
81697;SDS011;71109;52.514;5.708;2024-02-14T12:11:38;20.23;;;9.48;;
81697;SDS011;71109;52.514;5.708;2024-02-14T12:14:06;22.13;;;10.13;;
81697;SDS011;71109;52.514;5.708;2024-02-14T12:16:33;13.82;;;8.15;;
81697;SDS011;71109;52.514;5.708;2024-02-14T12:19:04;20.80;;;9.50;;
81697;SDS011;71109;52.514;5.708;2024-02-14T12:21:35;18.38;;;7.78;;
81697;SDS011;71109;52.514;5.708;2024-02-14T12:24:01;14.77;;;8.85;;
81697;SDS011;71109;52.514;5.708;2024-02-14T12:26:27;15.63;;;9.02;;
81697;SDS011;71109;52.514;5.708;2024-02-14T12:28:52;16.63;;;8.77;;
81697;SDS011;71109;52.514;5.708;2024-02-14T12:31:21;14.45;;;8.13;;
81697;SDS011;71109;52.514;5.708;2024-02-14T12:33:48;16.48;;;9.65;;
81697;SDS011;71109;52.514;5.708;2024-02-14T12:36:14;22.42;;;10.05;;
81697;SDS011;71109;52.514;5.708;2024-02-14T12:38:39;18.08;;;9.27;;
81697;SDS011;71109;52.514;5.708;2024-02-14T12:41:04;20.27;;;9.07;;
81697;SDS011;71109;52.514;5.708;2024-02-14T12:43:30;14.85;;;8.52;;
81697;SDS011;71109;52.514;5.708;2024-02-14T12:45:55;20.47;;;11.43;;
81697;SDS011;71109;52.514;5.708;2024-02-14T12:48:24;18.45;;;10.63;;
81697;SDS011;71109;52.514;5.708;2024-02-14T12:50:53;16.90;;;8.88;;
81697;SDS011;71109;52.514;5.708;2024-02-14T12:53:18;18.13;;;9.77;;
81697;SDS011;71109;52.514;5.708;2024-02-14T12:55:44;19.67;;;8.77;;
81697;SDS011;71109;52.514;5.708;2024-02-14T12:58:11;19.65;;;9.80;;
81697;SDS011;71109;52.514;5.708;2024-02-14T13:00:36;17.37;;;8.00;;
81697;SDS011;71109;52.514;5.708;2024-02-14T13:03:03;14.13;;;8.20;;
81697;SDS011;71109;52.514;5.708;2024-02-14T13:05:29;17.55;;;8.82;;
81697;SDS011;71109;52.514;5.708;2024-02-14T13:07:55;15.77;;;9.00;;
81697;SDS011;71109;52.514;5.708;2024-02-14T13:10:20;15.27;;;8.48;;
81697;SDS011;71109;52.514;5.708;2024-02-14T13:12:46;14.27;;;8.35;;
81697;SDS011;71109;52.514;5.708;2024-02-14T13:15:12;14.55;;;8.27;;
81697;SDS011;71109;52.514;5.708;2024-02-14T13:17:37;16.83;;;7.78;;
81697;SDS011;71109;52.514;5.708;2024-02-14T13:20:03;13.95;;;7.70;;
81697;SDS011;71109;52.514;5.708;2024-02-14T13:22:28;19.15;;;8.15;;
81697;SDS011;71109;52.514;5.708;2024-02-14T13:24:54;14.18;;;7.20;;
81697;SDS011;71109;52.514;5.708;2024-02-14T13:27:21;14.68;;;7.70;;
81697;SDS011;71109;52.514;5.708;2024-02-14T13:29:48;14.75;;;7.65;;
81697;SDS011;71109;52.514;5.708;2024-02-14T13:32:13;15.73;;;7.88;;
81697;SDS011;71109;52.514;5.708;2024-02-14T13:34:38;14.65;;;7.85;;
81697;SDS011;71109;52.514;5.708;2024-02-14T13:37:04;17.90;;;9.30;;
81697;SDS011;71109;52.514;5.708;2024-02-14T13:39:30;16.83;;;9.50;;
81697;SDS011;71109;52.514;5.708;2024-02-14T13:41:56;17.70;;;8.65;;
81697;SDS011;71109;52.514;5.708;2024-02-14T13:44:23;16.75;;;8.68;;
81697;SDS011;71109;52.514;5.708;2024-02-14T13:46:49;22.58;;;8.93;;
81697;SDS011;71109;52.514;5.708;2024-02-14T13:49:15;16.73;;;9.30;;
81697;SDS011;71109;52.514;5.708;2024-02-14T13:51:46;21.60;;;9.63;;
81697;SDS011;71109;52.514;5.708;2024-02-14T13:54:12;17.60;;;9.10;;
81697;SDS011;71109;52.514;5.708;2024-02-14T13:56:37;19.83;;;9.48;;
81697;SDS011;71109;52.514;5.708;2024-02-14T13:59:03;20.35;;;9.38;;
81697;SDS011;71109;52.514;5.708;2024-02-14T14:01:28;18.20;;;8.50;;
81697;SDS011;71109;52.514;5.708;2024-02-14T14:03:53;19.13;;;9.07;;
81697;SDS011;71109;52.514;5.708;2024-02-14T14:06:20;15.63;;;7.80;;
81697;SDS011;71109;52.514;5.708;2024-02-14T14:08:49;13.60;;;7.22;;
81697;SDS011;71109;52.514;5.708;2024-02-14T14:11:14;12.15;;;6.10;;
81697;SDS011;71109;52.514;5.708;2024-02-14T14:13:40;16.20;;;6.73;;
81697;SDS011;71109;52.514;5.708;2024-02-14T14:16:05;10.35;;;5.85;;
81697;SDS011;71109;52.514;5.708;2024-02-14T14:18:31;10.50;;;5.53;;